Royal, Arkansas
Current Conditions -  °F | °C
As of 1:53 PM on Sunday 21 Dec 2014 (Local Time) from KHOT Reporting Station
Overcast Overcast  
Wind Chill: 53°   Ceiling: 8000
Heat Index: 53°   Visibility: 10mi
Dew Point: 38°   Wind: 8mph
Humidity: 57%   Direction: 130°SE
Pressure: 30.01"   Gusts: NA
Location:  34.51°N, 93.25°W
Report Text: KHOT 211953Z AUTO 13007KT 10SM FEW038 OVC080 12/03 A3001 RMK AO2 SLP161 T01170033
Loading
Personal Weather Stations






























Interactive Weather Map New forecast layout! Learn more

10-Day Weather Forecast

Advertisements
Track Severe Weather on mobile